Time;durP1;ratioP1;P1;durP2;ratioP2;P2;SDS_P1;SDS_P2;PMS_P1;PMS_P2;Temp;Humidity;BMP_temperature;BMP_pressure;BME280_temperature;BME280_humidity;BME280_pressure;Samples;Min_cycle;Max_cycle;Signal;HPM_P1;HPM_P2
2023/12/05 00:01:24;;;;;;;5.40;1.70;;;32.40;99.90;;;;;;5053448;28;20173;-70
2023/12/05 00:03:51;;;;;;;5.28;1.63;;;32.70;97.10;;;;;;5071910;28;20211;-71
2023/12/05 00:06:19;;;;;;;3.10;1.65;;;32.60;97.40;;;;;;5072228;28;20168;-71
2023/12/05 00:08:47;;;;;;;5.28;1.73;;;32.20;97.40;;;;;;5071595;28;20188;-70
2023/12/05 00:11:14;;;;;;;5.00;1.48;;;31.90;98.20;;;;;;5071871;28;20199;-70
2023/12/05 00:13:42;;;;;;;5.18;1.63;;;32.20;99.60;;;;;;5072177;28;20195;-69
2023/12/05 00:16:10;;;;;;;3.70;1.65;;;32.70;99.90;;;;;;5072006;28;20649;-70
2023/12/05 00:18:38;;;;;;;4.45;1.40;;;33.30;94.90;;;;;;5070009;28;20649;-70
2023/12/05 00:21:07;;;;;;;5.82;1.60;;;33.20;95.10;;;;;;5072009;28;20175;-70
2023/12/05 00:23:34;;;;;;;2.00;1.30;;;33.20;93.10;;;;;;5071943;28;20198;-70
2023/12/05 00:26:02;;;;;;;3.25;1.10;;;33.10;92.50;;;;;;5071427;28;20192;-70
2023/12/05 00:28:30;;;;;;;2.78;1.42;;;33.80;82.40;;;;;;5071740;28;20719;-70
2023/12/05 00:30:57;;;;;;;2.08;1.48;;;33.30;81.90;;;;;;5072006;28;20176;-69
2023/12/05 00:33:25;;;;;;;2.33;1.33;;;33.50;90.60;;;;;;5071558;28;20211;-69
2023/12/05 00:35:53;;;;;;;5.07;1.77;;;33.60;88.60;;;;;;5071767;28;20188;-69
2023/12/05 00:38:20;;;;;;;3.05;1.40;;;33.80;91.80;;;;;;5071921;28;20180;-70
2023/12/05 00:40:48;;;;;;;4.88;1.50;;;33.90;88.50;;;;;;5071600;28;20183;-70
2023/12/05 00:43:17;;;;;;;3.38;1.33;;;34.30;81.80;;;;;;5073641;28;20573;-71
2023/12/05 00:46:03;;;;;;;3.53;1.45;;;34.30;71.30;;;;;;5075805;28;20188;-72
2023/12/05 00:48:30;;;;;;;3.17;1.50;;;34.90;66.60;;;;;;5075657;28;20215;-71
2023/12/05 00:50:58;;;;;;;2.00;1.33;;;35.00;69.90;;;;;;5076117;28;20175;-71
2023/12/05 00:53:26;;;;;;;6.93;1.92;;;35.40;60.10;;;;;;5075977;28;20187;-71
2023/12/05 00:55:53;;;;;;;1.83;1.38;;;35.00;59.50;;;;;;5075555;28;20182;-71
2023/12/05 00:58:21;;;;;;;2.92;1.42;;;34.70;65.90;;;;;;5075909;28;20184;-71
2023/12/05 01:00:49;;;;;;;4.40;1.38;;;34.70;61.10;;;;;;5075823;28;20202;-72
2023/12/05 01:03:17;;;;;;;4.32;1.20;;;34.90;59.20;;;;;;5075417;28;20172;-70
2023/12/05 01:05:44;;;;;;;3.17;1.48;;;35.30;52.10;;;;;;5075371;28;20281;-72
2023/12/05 01:08:12;;;;;;;3.45;1.48;;;35.30;45.40;;;;;;5074916;28;20222;-72
2023/12/05 01:10:40;;;;;;;7.25;1.70;;;35.90;47.60;;;;;;5087475;28;20222;-71
2023/12/05 01:13:07;;;;;;;1.38;1.05;;;36.00;47.60;;;;;;5075680;28;20183;-71
2023/12/05 01:15:36;;;;;;;2.90;1.10;;;36.10;33.50;;;;;;5087426;28;20248;-71
2023/12/05 01:18:04;;;;;;;3.03;1.25;;;36.30;39.70;;;;;;5095341;28;20243;-70
2023/12/05 01:20:31;;;;;;;3.22;1.20;;;36.20;31.20;;;;;;5095707;28;20533;-71
2023/12/05 01:23:00;;;;;;;2.30;1.10;;;35.80;28.80;;;;;;5095662;28;20190;-70
2023/12/05 01:25:28;;;;;;;1.55;1.10;;;36.00;29.30;;;;;;5095132;28;20660;-71
2023/12/05 01:27:56;;;;;;;3.72;1.10;;;35.90;28.40;;;;;;5081479;28;20231;-70
2023/12/05 01:30:24;;;;;;;5.68;1.00;;;35.90;28.80;;;;;;5075275;28;20645;-69
2023/12/05 01:32:52;;;;;;;2.72;0.82;;;35.90;26.70;;;;;;5074641;28;20184;-69
2023/12/05 01:35:19;;;;;;;2.03;1.20;;;36.30;21.70;;;;;;5075118;28;20210;-70
2023/12/05 01:37:49;;;;;;;2.20;1.20;;;36.10;22.40;;;;;;5075453;28;20203;-71
2023/12/05 01:40:16;;;;;;;2.40;0.90;;;36.50;25.00;;;;;;5075870;28;20206;-69
2023/12/05 01:42:44;;;;;;;1.67;0.80;;;36.80;20.10;;;;;;5076026;28;20218;-71
2023/12/05 01:45:12;;;;;;;0.95;0.77;;;36.80;12.20;;;;;;5075781;28;20226;-71
2023/12/05 01:47:41;;;;;;;1.65;0.70;;;36.40;6.70;;;;;;5075845;28;20219;-71
2023/12/05 01:50:13;;;;;;;3.25;1.10;;;37.00;13.20;;;;;;5064573;28;20644;-70
2023/12/05 01:52:46;;;;;;;3.22;0.93;;;36.90;18.30;;;;;;5074669;28;20226;-71
2023/12/05 01:55:15;;;;;;;0.75;0.70;;;37.20;12.60;;;;;;5072758;28;20190;-71
2023/12/05 01:57:45;;;;;;;1.52;0.82;;;37.30;10.50;;;;;;5074158;28;20230;-70
2023/12/05 02:00:14;;;;;;;3.45;0.98;;;36.90;12.90;;;;;;5074126;28;20172;-71
2023/12/05 02:02:42;;;;;;;2.03;0.90;;;36.90;11.00;;;;;;5074275;28;20614;-71
2023/12/05 02:05:13;;;;;;;2.28;1.10;;;36.60;11.80;;;;;;5073965;28;20180;-71
2023/12/05 02:07:41;;;;;;;3.40;1.30;;;36.60;14.30;;;;;;5073007;28;20592;-72
2023/12/05 02:10:10;;;;;;;6.20;1.08;;;37.10;14.20;;;;;;5074348;28;20258;-71
2023/12/05 02:12:38;;;;;;;2.83;0.80;;;37.10;11.60;;;;;;5072443;28;20176;-71
2023/12/05 02:15:07;;;;;;;4.60;1.10;;;36.70;8.70;;;;;;5074353;28;20222;-72
2023/12/05 02:17:47;;;;;;;5.47;1.23;;;36.70;12.10;;;;;;5074130;28;20558;-72
2023/12/05 02:20:26;;;;;;;3.33;1.10;;;36.90;11.30;;;;;;5073750;28;20175;-71
2023/12/05 02:23:02;;;;;;;3.13;0.90;;;37.10;10.50;;;;;;5074235;28;20226;-70
2023/12/05 02:25:38;;;;;;;0.82;0.80;;;37.20;9.80;;;;;;5074222;28;20259;-70
2023/12/05 02:28:07;;;;;;;2.22;0.85;;;37.50;6.20;;;;;;5073245;28;20285;-69
2023/12/05 02:30:34;;;;;;;3.40;1.00;;;37.60;4.50;;;;;;5074181;28;20187;-71
2023/12/05 02:33:02;;;;;;;1.67;0.80;;;37.50;7.80;;;;;;5074149;28;20206;-71
2023/12/05 02:35:30;;;;;;;3.17;0.95;;;37.50;3.50;;;;;;5073342;28;20188;-72
2023/12/05 02:38:19;;;;;;;2.15;1.13;;;37.60;5.20;;;;;;5073777;28;20184;-71
2023/12/05 02:41:18;;;;;;;3.83;1.13;;;38.10;6.40;;;;;;5053856;28;20195;-72
2023/12/05 02:43:58;;;;;;;2.55;0.90;;;38.30;2.90;;;;;;5053789;28;20768;-72
2023/12/05 02:46:26;;;;;;;2.38;1.10;;;38.20;6.80;;;;;;5053741;28;20180;-71
2023/12/05 02:48:55;;;;;;;1.60;0.88;;;37.80;5.40;;;;;;5059617;28;20653;-72
2023/12/05 02:51:22;;;;;;;4.60;1.02;;;38.10;3.20;;;;;;5073516;28;20184;-72
2023/12/05 02:53:50;;;;;;;2.25;0.95;;;38.00;3.20;;;;;;5073548;28;20275;-73
2023/12/05 02:56:19;;;;;;;8.18;1.35;;;38.00;3.70;;;;;;5072841;28;20187;-73
2023/12/05 02:58:47;;;;;;;3.83;1.02;;;38.30;1.80;;;;;;5073210;28;20179;-72
2023/12/05 03:01:14;;;;;;;6.10;1.00;;;38.50;3.30;;;;;;5073640;28;20183;-72
2023/12/05 03:03:42;;;;;;;3.13;1.08;;;38.30;1.20;;;;;;5072476;28;20645;-73
2023/12/05 03:06:10;;;;;;;3.40;1.20;;;38.40;1.90;;;;;;5072653;28;20711;-73
2023/12/05 03:08:38;;;;;;;1.30;0.80;;;38.20;1.80;;;;;;5072651;28;20208;-72
2023/12/05 03:11:05;;;;;;;3.88;0.73;;;38.20;1.00;;;;;;5073024;28;20176;-72
2023/12/05 03:13:33;;;;;;;3.28;1.10;;;38.40;1.00;;;;;;5072786;28;20176;-73
2023/12/05 03:16:01;;;;;;;2.88;0.75;;;38.80;1.00;;;;;;5072701;28;20211;-72
2023/12/05 03:18:28;;;;;;;2.03;0.90;;;39.10;1.10;;;;;;5072242;28;20180;-72
2023/12/05 03:20:56;;;;;;;2.40;0.95;;;39.50;1.00;;;;;;5073038;28;20183;-70
2023/12/05 03:23:24;;;;;;;4.78;1.13;;;39.40;1.00;;;;;;5072566;28;20263;-72
2023/12/05 03:25:52;;;;;;;1.25;0.60;;;39.40;1.00;;;;;;5072506;28;20578;-71
2023/12/05 03:28:19;;;;;;;2.38;0.95;;;39.40;1.00;;;;;;5072351;28;20740;-73
2023/12/05 03:30:47;;;;;;;1.42;0.98;;;39.20;3.50;;;;;;5072919;28;20516;-72
2023/12/05 03:33:15;;;;;;;2.70;1.33;;;39.50;1.00;;;;;;5072394;28;20267;-72
2023/12/05 03:35:43;;;;;;;5.10;1.15;;;39.90;1.60;;;;;;5072192;28;20191;-72
2023/12/05 03:38:10;;;;;;;2.85;0.70;;;40.10;1.00;;;;;;5072364;28;20706;-72
2023/12/05 03:40:38;;;;;;;6.40;1.10;;;40.10;1.00;;;;;;5072283;28;20180;-71
2023/12/05 03:43:06;;;;;;;3.65;0.98;;;39.40;1.00;;;;;;5072656;28;20176;-72
2023/12/05 03:45:33;;;;;;;1.92;1.23;;;39.00;1.00;;;;;;5072471;28;20176;-72
2023/12/05 03:48:01;;;;;;;5.63;1.30;;;39.30;1.00;;;;;;5071608;28;20213;-72
2023/12/05 03:50:29;;;;;;;2.25;0.90;;;39.20;1.00;;;;;;5072200;28;20192;-72
2023/12/05 03:52:57;;;;;;;3.58;0.85;;;39.60;1.00;;;;;;5072250;28;20223;-72
2023/12/05 03:55:24;;;;;;;2.70;1.13;;;39.00;1.00;;;;;;5071756;28;20618;-72
2023/12/05 03:57:52;;;;;;;2.25;0.90;;;39.50;1.00;;;;;;5070815;28;20184;-72
2023/12/05 04:00:20;;;;;;;1.60;0.88;;;39.70;1.00;;;;;;5072458;28;20229;-71
2023/12/05 04:02:48;;;;;;;4.03;1.00;;;39.70;1.00;;;;;;5071816;28;20187;-72
2023/12/05 04:05:16;;;;;;;2.88;0.73;;;39.60;1.00;;;;;;5072139;28;20238;-72
2023/12/05 04:07:45;;;;;;;5.72;1.10;;;40.10;1.00;;;;;;5071652;28;20272;-71
2023/12/05 04:10:13;;;;;;;4.35;1.00;;;40.30;1.00;;;;;;5071823;28;20675;-71
2023/12/05 04:12:41;;;;;;;4.25;1.15;;;39.90;1.00;;;;;;5072294;28;20763;-71
2023/12/05 04:15:09;;;;;;;4.57;0.80;;;40.10;1.00;;;;;;5072394;28;20236;-72
2023/12/05 04:17:37;;;;;;;7.47;1.20;;;40.30;1.00;;;;;;5071141;28;20319;-72
2023/12/05 04:20:07;;;;;;;8.15;1.00;;;39.90;1.00;;;;;;5070687;28;20180;-72
2023/12/05 04:22:34;;;;;;;4.82;1.08;;;40.00;1.00;;;;;;5072035;28;20300;-72
2023/12/05 04:25:03;;;;;;;5.25;0.98;;;40.10;1.00;;;;;;5071423;28;20180;-71
2023/12/05 04:27:31;;;;;;;3.10;1.25;;;40.10;1.00;;;;;;5071338;28;20248;-72
2023/12/05 04:30:04;;;;;;;5.68;1.05;;;40.10;1.00;;;;;;5072000;28;20234;-71
2023/12/05 04:32:31;;;;;;;6.28;1.30;;;39.70;1.00;;;;;;5071637;28;20605;-72
2023/12/05 04:34:59;;;;;;;2.25;0.93;;;39.70;1.00;;;;;;5072091;28;20226;-71
2023/12/05 04:37:27;;;;;;;5.85;1.10;;;39.80;1.00;;;;;;5070487;28;20194;-70
2023/12/05 04:39:54;;;;;;;1.63;0.80;;;40.30;1.00;;;;;;5071073;28;20258;-72
2023/12/05 04:42:22;;;;;;;2.95;1.27;;;40.40;1.00;;;;;;5070699;28;20192;-71
2023/12/05 04:44:50;;;;;;;7.55;1.30;;;40.50;1.00;;;;;;5071432;28;20270;-73
2023/12/05 04:47:18;;;;;;;3.90;1.17;;;40.50;1.00;;;;;;5071242;28;20253;-72
2023/12/05 04:49:45;;;;;;;6.38;1.33;;;40.60;1.00;;;;;;5071844;28;20545;-73
2023/12/05 04:52:13;;;;;;;3.53;1.30;;;40.30;1.00;;;;;;5071297;28;20188;-74
2023/12/05 04:54:41;;;;;;;1.38;0.80;;;40.20;1.00;;;;;;5069946;28;20665;-77
2023/12/05 04:57:09;;;;;;;6.22;1.27;;;40.10;1.00;;;;;;5072153;28;20307;-78
2023/12/05 04:59:37;;;;;;;4.72;1.20;;;39.90;1.00;;;;;;5073108;28;20204;-79
2023/12/05 05:02:05;;;;;;;2.70;1.02;;;39.90;1.00;;;;;;5071420;28;20180;-72
2023/12/05 05:04:32;;;;;;;2.78;1.30;;;40.10;1.00;;;;;;5071682;28;20176;-69
2023/12/05 05:07:00;;;;;;;3.42;1.17;;;40.20;1.00;;;;;;5071911;28;20254;-73
2023/12/05 05:09:28;;;;;;;5.70;1.30;;;40.30;1.00;;;;;;5073202;28;20287;-73
2023/12/05 05:11:55;;;;;;;3.83;1.20;;;40.50;1.00;;;;;;5071771;28;20612;-73
2023/12/05 05:14:23;;;;;;;7.15;1.13;;;40.50;1.00;;;;;;5071978;28;20568;-69
2023/12/05 05:16:51;;;;;;;7.88;1.30;;;40.40;1.00;;;;;;5072604;28;20211;-71
2023/12/05 05:19:18;;;;;;;3.15;1.13;;;40.30;1.00;;;;;;5072469;28;20187;-75
2023/12/05 05:21:46;;;;;;;2.63;1.38;;;40.10;1.00;;;;;;5071571;28;20226;-76
2023/12/05 05:24:14;;;;;;;5.28;1.00;;;39.90;1.00;;;;;;5071147;28;20647;-73
2023/12/05 05:26:42;;;;;;;3.92;1.10;;;39.60;1.00;;;;;;5071676;28;20179;-69
2023/12/05 05:29:10;;;;;;;2.90;1.08;;;39.60;1.00;;;;;;5072629;28;20693;-71
2023/12/05 05:31:37;;;;;;;5.20;1.10;;;39.90;1.00;;;;;;5075516;28;20168;-76
2023/12/05 05:34:05;;;;;;;1.17;1.00;;;40.00;1.00;;;;;;5077806;28;20184;-69
2023/12/05 05:36:32;;;;;;;5.90;1.38;;;39.90;1.00;;;;;;5077008;28;20180;-76
2023/12/05 05:39:00;;;;;;;4.60;1.10;;;40.00;1.00;;;;;;5078997;28;20180;-77
2023/12/05 05:41:28;;;;;;;5.35;1.50;;;40.00;1.00;;;;;;5079430;28;20268;-75
2023/12/05 05:43:55;;;;;;;2.70;1.02;;;40.00;1.00;;;;;;5079605;28;20755;-76
2023/12/05 05:46:23;;;;;;;6.03;1.20;;;39.90;1.00;;;;;;5082376;28;20195;-76
2023/12/05 05:48:50;;;;;;;3.35;0.90;;;39.80;1.00;;;;;;5077741;28;20230;-76
2023/12/05 05:51:17;;;;;;;4.35;1.00;;;39.50;1.00;;;;;;5076588;28;20176;-76
2023/12/05 05:53:45;;;;;;;2.90;1.17;;;39.70;1.00;;;;;;5077101;28;20222;-72
2023/12/05 05:56:12;;;;;;;3.42;1.05;;;39.60;1.00;;;;;;5077622;28;20180;-75
2023/12/05 05:58:39;;;;;;;3.55;1.20;;;39.80;1.00;;;;;;5079828;28;20176;-75
2023/12/05 06:01:07;;;;;;;4.63;1.40;;;39.90;1.00;;;;;;5085855;28;20202;-71
2023/12/05 06:03:34;;;;;;;5.82;1.75;;;40.00;1.00;;;;;;5077427;28;20172;-76
2023/12/05 06:06:02;;;;;;;4.65;1.33;;;40.10;5.30;;;;;;5077748;28;20206;-73
2023/12/05 06:08:29;;;;;;;2.97;1.10;;;40.00;9.00;;;;;;5075262;28;20212;-74
2023/12/05 06:10:56;;;;;;;2.72;1.10;;;39.70;7.70;;;;;;5076051;28;20204;-67
2023/12/05 06:13:24;;;;;;;3.50;1.08;;;39.60;5.90;;;;;;5076509;28;20202;-72
2023/12/05 06:15:51;;;;;;;6.78;1.23;;;39.40;7.10;;;;;;5077414;28;20275;-71
2023/12/05 06:18:18;;;;;;;4.55;1.40;;;39.20;8.30;;;;;;5079857;28;20542;-69
2023/12/05 06:20:46;;;;;;;5.55;1.10;;;39.30;10.30;;;;;;5078456;28;20195;-69
2023/12/05 06:23:14;;;;;;;5.25;1.00;;;39.10;10.90;;;;;;5085325;28;20191;-68
2023/12/05 06:25:41;;;;;;;4.07;1.40;;;38.90;14.30;;;;;;5074151;28;20176;-73
2023/12/05 06:28:08;;;;;;;4.82;1.15;;;38.90;12.20;;;;;;5089328;28;20227;-69
2023/12/05 06:30:36;;;;;;;5.60;1.13;;;38.70;13.90;;;;;;5094072;28;20526;-71
2023/12/05 06:33:03;;;;;;;4.95;1.15;;;38.70;15.90;;;;;;5095063;28;20167;-74
2023/12/05 06:35:31;;;;;;;2.13;1.30;;;38.60;15.80;;;;;;5095013;28;20654;-70
2023/12/05 06:37:58;;;;;;;4.68;1.23;;;38.10;16.90;;;;;;5094438;28;20214;-70
2023/12/05 06:40:25;;;;;;;3.30;1.25;;;38.00;18.40;;;;;;5077744;28;20269;-74
2023/12/05 06:42:52;;;;;;;10.82;1.70;;;38.20;19.70;;;;;;5074650;28;20182;-78
2023/12/05 06:45:20;;;;;;;5.50;1.30;;;38.20;21.50;;;;;;5074528;28;20282;-77
2023/12/05 06:47:47;;;;;;;5.28;1.55;;;38.10;25.50;;;;;;5074331;28;20314;-78
2023/12/05 06:50:15;;;;;;;4.13;1.20;;;38.10;28.10;;;;;;5075188;28;20172;-79
2023/12/05 06:52:42;;;;;;;3.78;1.42;;;37.90;29.60;;;;;;5074833;28;20549;-70
2023/12/05 06:55:10;;;;;;;3.53;0.90;;;38.00;30.70;;;;;;5076096;28;20249;-74
2023/12/05 06:57:37;;;;;;;7.93;1.50;;;38.00;32.90;;;;;;5074122;28;20183;-75
2023/12/05 07:00:06;;;;;;;3.20;1.63;;;37.90;31.00;;;;;;5074153;28;20257;-76
2023/12/05 07:02:33;;;;;;;3.22;1.20;;;37.70;33.10;;;;;;5076919;28;20176;-78
2023/12/05 07:05:04;;;;;;;8.45;1.70;;;37.60;33.00;;;;;;5080079;28;20283;-72
2023/12/05 07:07:31;;;;;;;4.30;1.25;;;37.50;37.00;;;;;;5073919;28;20227;-69
2023/12/05 07:09:58;;;;;;;4.07;1.27;;;37.50;35.30;;;;;;5073460;28;20176;-75
2023/12/05 07:12:26;;;;;;;6.00;1.42;;;37.40;36.80;;;;;;5074582;28;20372;-70
2023/12/05 07:14:53;;;;;;;5.57;1.52;;;37.30;41.60;;;;;;5073845;28;20180;-73
2023/12/05 07:17:21;;;;;;;4.93;1.35;;;37.20;39.20;;;;;;5074443;28;20253;-73
2023/12/05 07:19:48;;;;;;;4.75;1.05;;;37.10;38.90;;;;;;5074607;28;20183;-71
2023/12/05 07:22:15;;;;;;;6.60;2.03;;;37.10;39.60;;;;;;5075381;28;20245;-73
2023/12/05 07:24:43;;;;;;;3.35;1.10;;;36.90;39.50;;;;;;5075744;28;20184;-72
2023/12/05 07:27:10;;;;;;;3.65;1.42;;;36.90;40.30;;;;;;5075311;28;20315;-75
2023/12/05 07:29:38;;;;;;;4.00;1.42;;;36.90;40.90;;;;;;5074373;28;20188;-72
2023/12/05 07:32:05;;;;;;;4.60;1.55;;;36.60;44.60;;;;;;5074216;28;20568;-75
2023/12/05 07:34:32;;;;;;;4.55;1.63;;;36.50;45.70;;;;;;5074647;28;20176;-70
2023/12/05 07:37:00;;;;;;;10.60;1.95;;;36.40;48.90;;;;;;5072930;28;20196;-71
2023/12/05 07:39:28;;;;;;;8.55;2.08;;;36.30;49.90;;;;;;5074313;28;20183;-73
2023/12/05 07:41:55;;;;;;;5.53;2.22;;;36.30;55.30;;;;;;5074840;28;20191;-70
2023/12/05 07:44:22;;;;;;;6.90;2.03;;;36.20;53.00;;;;;;5076251;28;20530;-70
2023/12/05 07:46:50;;;;;;;3.40;1.40;;;36.10;56.20;;;;;;5074162;28;20542;-74
2023/12/05 07:49:17;;;;;;;5.68;1.58;;;35.90;57.20;;;;;;5075647;28;20182;-76
2023/12/05 07:51:46;;;;;;;5.18;1.95;;;35.60;64.00;;;;;;5075525;28;20534;-71
2023/12/05 07:54:13;;;;;;;6.65;1.85;;;35.40;67.20;;;;;;5052915;28;20266;-71
2023/12/05 07:56:40;;;;;;;7.70;1.83;;;35.30;73.00;;;;;;5070937;28;20253;-75
2023/12/05 07:59:09;;;;;;;3.47;1.58;;;35.10;74.40;;;;;;5074239;28;20241;-75
2023/12/05 08:01:36;;;;;;;5.10;1.50;;;35.00;77.70;;;;;;5074284;28;20180;-71
2023/12/05 08:04:03;;;;;;;4.43;1.83;;;34.90;85.00;;;;;;5074335;28;20214;-74
2023/12/05 08:06:31;;;;;;;5.22;1.75;;;34.90;84.20;;;;;;5072920;28;20633;-74
2023/12/05 08:08:59;;;;;;;6.03;2.00;;;34.80;85.70;;;;;;5082658;28;20283;-75
2023/12/05 08:11:27;;;;;;;6.32;1.65;;;34.50;91.10;;;;;;5083077;28;20218;-75
2023/12/05 08:13:54;;;;;;;6.88;2.10;;;34.20;95.40;;;;;;5086761;28;20183;-69
2023/12/05 08:19:43;;;;;;;5.38;1.70;;;33.70;99.90;;;;;;5077387;28;20230;-75
2023/12/05 08:22:11;;;;;;;8.93;2.20;;;33.40;99.90;;;;;;5076023;28;20180;-71
2023/12/05 08:24:38;;;;;;;12.18;2.35;;;33.20;99.90;;;;;;5074207;28;20183;-68
2023/12/05 08:27:05;;;;;;;9.20;2.03;;;33.10;99.90;;;;;;5074554;28;20587;-70
2023/12/05 08:29:33;;;;;;;7.97;2.00;;;33.00;99.90;;;;;;5074806;28;20187;-75
2023/12/05 08:32:00;;;;;;;8.70;2.15;;;32.70;99.90;;;;;;5074733;28;20174;-72
2023/12/05 08:34:28;;;;;;;6.05;2.13;;;32.60;99.90;;;;;;5075225;28;20221;-73
2023/12/05 08:36:55;;;;;;;7.60;2.08;;;32.40;99.90;;;;;;5076370;28;20168;-71
2023/12/05 08:39:22;;;;;;;5.82;2.00;;;32.30;99.90;;;;;;5076119;28;20256;-72
2023/12/05 08:41:51;;;;;;;7.45;2.10;;;32.20;99.90;;;;;;5074808;28;20273;-76
2023/12/05 08:44:19;;;;;;;9.57;1.98;;;32.20;99.90;;;;;;5076799;28;20201;-76
2023/12/05 08:46:47;;;;;;;7.93;2.45;;;32.00;99.90;;;;;;5076757;28;20528;-74
2023/12/05 08:49:15;;;;;;;9.07;2.80;;;31.70;99.90;;;;;;5082301;28;20180;-74
2023/12/05 08:51:42;;;;;;;5.93;2.13;;;31.60;99.90;;;;;;5083341;28;20236;-76
2023/12/05 08:54:10;;;;;;;16.33;2.35;;;31.50;99.90;;;;;;5079785;28;20233;-71
2023/12/05 08:56:38;;;;;;;8.70;2.03;;;31.40;99.90;;;;;;5074015;28;20184;-74
2023/12/05 08:59:05;;;;;;;8.95;2.38;;;31.30;99.90;;;;;;5074588;28;20187;-71
2023/12/05 09:01:33;;;;;;;7.13;1.90;;;31.20;99.90;;;;;;5073194;28;20215;-75
2023/12/05 09:04:00;;;;;;;6.20;1.83;;;31.00;99.90;;;;;;5073802;28;20212;-73
2023/12/05 09:06:27;;;;;;;7.35;1.95;;;30.90;99.90;;;;;;5077006;28;20609;-75
2023/12/05 09:08:55;;;;;;;12.57;2.80;;;30.80;99.90;;;;;;5077204;28;20296;-75
2023/12/05 09:11:22;;;;;;;17.75;3.03;;;30.70;99.90;;;;;;5076989;28;20222;-69
2023/12/05 09:13:49;;;;;;;6.03;2.10;;;30.60;99.90;;;;;;5076944;28;20199;-74
2023/12/05 09:16:17;;;;;;;9.05;2.67;;;30.60;99.90;;;;;;5076845;28;20539;-73
2023/12/05 09:18:44;;;;;;;12.82;2.65;;;30.70;99.90;;;;;;5078328;28;20168;-70
2023/12/05 09:21:12;;;;;;;7.60;2.80;;;30.50;99.90;;;;;;5077140;28;20225;-73
2023/12/05 09:23:39;;;;;;;8.10;2.25;;;30.30;99.90;;;;;;5076735;28;20186;-74
2023/12/05 09:26:06;;;;;;;7.25;2.22;;;30.20;99.90;;;;;;5081327;28;20184;-70
2023/12/05 09:28:34;;;;;;;5.40;2.40;;;30.10;99.90;;;;;;5079519;28;20270;-74
2023/12/05 09:31:01;;;;;;;7.87;2.67;;;30.00;99.90;;;;;;5080610;28;20179;-73
2023/12/05 09:33:29;;;;;;;8.53;2.33;;;30.00;99.90;;;;;;5078857;28;20192;-75
2023/12/05 09:35:56;;;;;;;11.05;2.35;;;30.00;99.90;;;;;;5069547;28;20275;-75
2023/12/05 09:38:24;;;;;;;10.57;2.95;;;30.10;99.90;;;;;;5074807;28;20925;-77
2023/12/05 09:40:53;;;;;;;8.53;2.60;;;29.90;99.90;;;;;;5075415;28;20229;-76
2023/12/05 09:43:23;;;;;;;7.22;2.25;;;29.80;99.90;;;;;;5075472;28;20633;-74
2023/12/05 09:46:00;;;;;;;6.93;2.90;;;29.70;99.90;;;;;;5076600;28;20195;-74
2023/12/05 09:48:38;;;;;;;5.37;2.80;;;29.70;99.90;;;;;;5076931;28;20222;-75
2023/12/05 09:51:08;;;;;;;7.33;3.30;;;29.70;99.90;;;;;;5075439;28;20628;-70
2023/12/05 09:53:36;;;;;;;8.77;3.72;;;29.70;99.90;;;;;;5075801;28;20637;-70
2023/12/05 09:56:05;;;;;;;7.47;2.40;;;29.60;99.90;;;;;;5074654;28;20562;-75
2023/12/05 09:58:33;;;;;;;9.97;3.20;;;29.60;99.90;;;;;;5075442;28;20636;-70
2023/12/05 10:01:01;;;;;;;6.70;3.10;;;29.50;99.90;;;;;;5074498;28;20619;-71
2023/12/05 10:03:32;;;;;;;4.88;2.85;;;29.50;99.90;;;;;;5075156;28;20254;-76
2023/12/05 10:06:00;;;;;;;13.77;3.30;;;29.50;99.90;;;;;;5075572;28;20554;-75
2023/12/05 10:08:28;;;;;;;6.37;2.93;;;29.40;99.90;;;;;;5075699;28;20306;-74
2023/12/05 10:10:58;;;;;;;10.83;3.20;;;29.40;99.90;;;;;;5075559;28;20187;-69
2023/12/05 10:13:26;;;;;;;7.90;3.40;;;29.40;99.90;;;;;;5074602;28;20693;-75
2023/12/05 10:15:54;;;;;;;11.60;3.73;;;29.30;99.90;;;;;;5074913;28;20258;-71
2023/12/05 10:18:22;;;;;;;12.07;3.97;;;29.30;99.90;;;;;;5075324;28;20271;-71
2023/12/05 10:20:50;;;;;;;11.87;4.20;;;29.30;99.90;;;;;;5075512;28;20219;-70
2023/12/05 10:23:18;;;;;;;10.20;4.20;;;29.20;99.90;;;;;;5075384;28;20269;-76
2023/12/05 10:29:08;;;;;;;9.40;3.93;;;29.00;99.90;;;;;;5074389;28;20235;-69
2023/12/05 10:31:35;;;;;;;9.90;4.40;;;28.90;99.90;;;;;;5074991;28;20209;-74
2023/12/05 10:34:06;;;;;;;7.30;4.30;;;28.90;99.90;;;;;;5075021;28;20190;-69
2023/12/05 10:36:33;;;;;;;9.20;3.70;;;28.80;99.90;;;;;;5075188;28;20176;-69
2023/12/05 10:39:00;;;;;;;10.97;4.37;;;28.80;99.90;;;;;;5075408;28;20188;-72
2023/12/05 10:41:29;;;;;;;7.20;3.60;;;28.70;99.90;;;;;;5075015;28;20180;-71
2023/12/05 10:43:57;;;;;;;7.17;3.60;;;28.70;99.90;;;;;;5074678;28;20194;-72
2023/12/05 10:46:28;;;;;;;8.33;3.63;;;28.70;99.90;;;;;;5073865;28;20180;-71
2023/12/05 10:48:56;;;;;;;8.80;4.07;;;28.80;99.90;;;;;;5074828;28;20661;-69
2023/12/05 10:51:26;;;;;;;8.87;3.50;;;28.80;99.90;;;;;;5074854;28;20183;-70
2023/12/05 10:53:55;;;;;;;7.83;4.17;;;28.70;99.90;;;;;;5074729;28;20188;-71
2023/12/05 10:56:23;;;;;;;6.57;3.37;;;28.70;99.90;;;;;;5074554;28;20187;-75
2023/12/05 10:58:52;;;;;;;8.20;4.03;;;28.70;99.90;;;;;;5074786;28;20176;-69
2023/12/05 11:01:21;;;;;;;7.60;3.33;;;28.80;99.90;;;;;;5074242;28;20190;-71
2023/12/05 11:03:51;;;;;;;5.87;3.70;;;28.80;99.90;;;;;;5073999;28;20257;-72
2023/12/05 11:06:18;;;;;;;8.03;3.67;;;28.80;99.90;;;;;;5075238;28;20226;-69
2023/12/05 11:08:46;;;;;;;7.73;3.40;;;28.70;99.90;;;;;;5074487;28;20239;-71
2023/12/05 11:11:13;;;;;;;9.57;4.03;;;28.70;99.90;;;;;;5074737;28;20256;-71
2023/12/05 11:13:42;;;;;;;10.97;4.10;;;28.70;99.90;;;;;;5074490;28;20176;-69
2023/12/05 11:16:24;;;;;;;5.93;2.60;;;28.70;99.90;;;;;;5074651;28;20675;-70
2023/12/05 11:19:13;;;;;;;9.97;3.73;;;28.70;99.90;;;;;;5074550;28;20581;-77
2023/12/05 11:22:26;;;;;;;5.67;2.70;;;28.70;99.90;;;;;;5074108;28;20281;-69
2023/12/05 11:25:17;;;;;;;7.27;2.77;;;28.60;99.90;;;;;;5073449;28;20587;-74
2023/12/05 11:28:14;;;;;;;7.37;3.37;;;28.50;99.90;;;;;;5073667;28;20200;-76
2023/12/05 11:31:20;;;;;;;11.30;2.90;;;28.40;99.90;;;;;;5074262;28;20227;-73
2023/12/05 11:34:05;;;;;;;5.97;2.90;;;28.30;99.90;;;;;;5063129;28;20192;-75
2023/12/05 11:36:48;;;;;;;9.60;2.90;;;28.30;99.90;;;;;;5072271;28;20191;-72
2023/12/05 11:39:15;;;;;;;8.00;2.73;;;28.30;99.90;;;;;;5073591;28;20262;-68
2023/12/05 11:42:22;;;;;;;8.87;3.23;;;28.20;99.90;;;;;;5073809;28;20192;-68
2023/12/05 11:44:50;;;;;;;12.97;3.47;;;28.10;99.90;;;;;;5072204;28;20194;-68
2023/12/05 11:47:26;;;;;;;5.43;3.03;;;28.00;99.90;;;;;;5073814;28;20215;-68
2023/12/05 11:49:56;;;;;;;7.67;3.20;;;28.00;99.90;;;;;;5073969;28;20236;-69
2023/12/05 11:52:39;;;;;;;11.07;3.00;;;27.90;99.90;;;;;;5072315;28;20175;-70
2023/12/05 11:55:08;;;;;;;8.80;3.33;;;27.80;99.90;;;;;;5073408;28;20289;-72
2023/12/05 11:57:36;;;;;;;6.90;2.80;;;27.80;99.90;;;;;;5072692;28;20203;-69
2023/12/05 12:00:04;;;;;;;6.47;3.00;;;27.70;99.90;;;;;;5073746;28;20236;-70
2023/12/05 12:02:34;;;;;;;5.17;3.10;;;27.70;99.90;;;;;;5073671;28;20176;-67
2023/12/05 12:05:05;;;;;;;9.07;3.27;;;27.60;99.90;;;;;;5072958;28;20184;-68
2023/12/05 12:07:41;;;;;;;11.40;2.90;;;27.50;99.90;;;;;;5073042;28;20195;-69
2023/12/05 12:10:09;;;;;;;9.30;3.33;;;27.50;99.90;;;;;;5071299;28;20225;-68
2023/12/05 12:12:37;;;;;;;8.90;3.50;;;27.40;99.90;;;;;;5073393;28;20171;-68
2023/12/05 12:15:04;;;;;;;8.87;3.63;;;27.30;99.90;;;;;;5073489;28;20184;-75
2023/12/05 12:17:32;;;;;;;10.57;3.60;;;27.20;99.90;;;;;;5073418;28;20176;-68
2023/12/05 12:20:00;;;;;;;7.40;3.30;;;27.20;99.90;;;;;;5072974;28;20274;-69
2023/12/05 12:22:27;;;;;;;7.17;3.67;;;27.30;99.90;;;;;;5071857;28;20299;-67
2023/12/05 12:25:05;;;;;;;10.50;3.53;;;27.30;99.90;;;;;;5065723;28;20180;-69
2023/12/05 12:27:37;;;;;;;10.83;3.10;;;27.30;99.90;;;;;;5071793;28;20242;-69
2023/12/05 12:30:07;;;;;;;5.67;3.17;;;27.20;99.90;;;;;;5073175;28;20793;-77
2023/12/05 12:32:38;;;;;;;7.07;3.43;;;27.10;99.90;;;;;;5073057;28;20207;-76
2023/12/05 12:35:06;;;;;;;7.00;3.40;;;27.10;99.90;;;;;;5073159;28;20206;-73
2023/12/05 12:37:33;;;;;;;5.83;3.23;;;27.00;99.90;;;;;;5072917;28;20214;-77
2023/12/05 12:40:01;;;;;;;9.57;3.13;;;26.90;99.90;;;;;;5072463;28;20210;-77
2023/12/05 12:42:28;;;;;;;10.10;3.53;;;26.90;99.90;;;;;;5073681;28;20168;-73
2023/12/05 12:44:56;;;;;;;10.70;3.57;;;26.90;99.90;;;;;;5072948;28;20207;-77
2023/12/05 12:47:24;;;;;;;7.53;3.30;;;26.80;99.90;;;;;;5072920;28;20610;-78
2023/12/05 12:49:51;;;;;;;9.43;3.30;;;26.70;99.90;;;;;;5072556;28;20263;-76
2023/12/05 12:52:19;;;;;;;7.93;3.47;;;26.70;99.90;;;;;;5071819;28;20578;-74
2023/12/05 12:54:50;;;;;;;8.90;3.30;;;26.60;99.90;;;;;;5072619;28;20196;-77
2023/12/05 12:57:21;;;;;;;5.30;2.93;;;26.50;99.90;;;;;;5072975;28;20186;-76
2023/12/05 12:59:53;;;;;;;12.87;3.60;;;26.50;99.90;;;;;;5073497;28;20183;-75
2023/12/05 13:02:20;;;;;;;9.87;3.20;;;26.50;99.90;;;;;;5073455;28;20188;-76
2023/12/05 13:04:48;;;;;;;9.13;3.33;;;26.40;99.90;;;;;;5073503;28;20180;-68